sensor_id;sensor_type;location;lat;lon;timestamp;P1;durP1;ratioP1;P2;durP2;ratioP2
79149;SDS011;68563;45.644;13.782;2023-07-13T00:01:25;10.93;;;5.78;;
79149;SDS011;68563;45.644;13.782;2023-07-13T00:03:51;10.38;;;5.50;;
79149;SDS011;68563;45.644;13.782;2023-07-13T00:06:17;11.32;;;5.35;;
79149;SDS011;68563;45.644;13.782;2023-07-13T00:08:42;14.10;;;5.05;;
79149;SDS011;68563;45.644;13.782;2023-07-13T00:11:08;14.73;;;5.72;;
79149;SDS011;68563;45.644;13.782;2023-07-13T00:13:35;11.80;;;5.20;;
79149;SDS011;68563;45.644;13.782;2023-07-13T00:16:03;9.90;;;4.75;;
79149;SDS011;68563;45.644;13.782;2023-07-13T00:18:28;15.98;;;5.50;;
79149;SDS011;68563;45.644;13.782;2023-07-13T00:20:55;10.63;;;4.70;;
79149;SDS011;68563;45.644;13.782;2023-07-13T00:23:21;6.32;;;4.18;;
79149;SDS011;68563;45.644;13.782;2023-07-13T00:25:48;10.13;;;4.32;;
79149;SDS011;68563;45.644;13.782;2023-07-13T00:28:15;12.43;;;4.65;;
79149;SDS011;68563;45.644;13.782;2023-07-13T00:30:41;9.55;;;4.45;;
79149;SDS011;68563;45.644;13.782;2023-07-13T00:33:06;9.98;;;4.18;;
79149;SDS011;68563;45.644;13.782;2023-07-13T00:35:34;7.35;;;4.30;;
79149;SDS011;68563;45.644;13.782;2023-07-13T00:37:59;7.30;;;4.40;;
79149;SDS011;68563;45.644;13.782;2023-07-13T00:40:25;11.63;;;4.50;;
79149;SDS011;68563;45.644;13.782;2023-07-13T00:42:52;7.20;;;4.10;;
79149;SDS011;68563;45.644;13.782;2023-07-13T00:47:43;11.02;;;4.75;;
79149;SDS011;68563;45.644;13.782;2023-07-13T00:50:09;8.35;;;4.22;;
79149;SDS011;68563;45.644;13.782;2023-07-13T00:52:38;10.15;;;4.38;;
79149;SDS011;68563;45.644;13.782;2023-07-13T00:55:06;8.35;;;4.50;;
79149;SDS011;68563;45.644;13.782;2023-07-13T00:57:34;9.00;;;4.30;;
79149;SDS011;68563;45.644;13.782;2023-07-13T01:00:00;11.15;;;4.55;;
79149;SDS011;68563;45.644;13.782;2023-07-13T01:02:31;9.00;;;4.22;;
79149;SDS011;68563;45.644;13.782;2023-07-13T01:04:58;6.97;;;4.60;;
79149;SDS011;68563;45.644;13.782;2023-07-13T01:07:23;10.35;;;4.57;;
79149;SDS011;68563;45.644;13.782;2023-07-13T01:09:50;7.50;;;3.50;;
79149;SDS011;68563;45.644;13.782;2023-07-13T01:12:15;10.65;;;2.85;;
79149;SDS011;68563;45.644;13.782;2023-07-13T01:14:40;10.82;;;2.97;;
79149;SDS011;68563;45.644;13.782;2023-07-13T01:17:08;9.95;;;3.95;;
79149;SDS011;68563;45.644;13.782;2023-07-13T01:19:36;10.25;;;4.20;;
79149;SDS011;68563;45.644;13.782;2023-07-13T01:22:06;6.40;;;3.42;;
79149;SDS011;68563;45.644;13.782;2023-07-13T01:24:37;10.52;;;4.35;;
79149;SDS011;68563;45.644;13.782;2023-07-13T01:27:04;10.02;;;3.90;;
79149;SDS011;68563;45.644;13.782;2023-07-13T01:29:31;6.72;;;3.78;;
79149;SDS011;68563;45.644;13.782;2023-07-13T01:31:58;7.28;;;3.60;;
79149;SDS011;68563;45.644;13.782;2023-07-13T01:34:25;6.78;;;3.10;;
79149;SDS011;68563;45.644;13.782;2023-07-13T01:36:51;6.90;;;3.72;;
79149;SDS011;68563;45.644;13.782;2023-07-13T01:39:19;8.57;;;3.63;;
79149;SDS011;68563;45.644;13.782;2023-07-13T01:41:48;6.05;;;3.30;;
79149;SDS011;68563;45.644;13.782;2023-07-13T01:44:14;4.47;;;2.53;;
79149;SDS011;68563;45.644;13.782;2023-07-13T01:46:39;6.88;;;3.25;;
79149;SDS011;68563;45.644;13.782;2023-07-13T01:49:05;8.43;;;2.90;;
79149;SDS011;68563;45.644;13.782;2023-07-13T01:51:30;6.57;;;3.03;;
79149;SDS011;68563;45.644;13.782;2023-07-13T01:53:56;6.15;;;3.17;;
79149;SDS011;68563;45.644;13.782;2023-07-13T01:56:21;7.55;;;2.92;;
79149;SDS011;68563;45.644;13.782;2023-07-13T01:58:46;6.32;;;2.75;;
79149;SDS011;68563;45.644;13.782;2023-07-13T02:01:12;5.43;;;3.03;;
79149;SDS011;68563;45.644;13.782;2023-07-13T02:03:37;7.22;;;3.10;;
79149;SDS011;68563;45.644;13.782;2023-07-13T02:06:03;6.97;;;3.03;;
79149;SDS011;68563;45.644;13.782;2023-07-13T02:08:28;8.40;;;3.10;;
79149;SDS011;68563;45.644;13.782;2023-07-13T02:10:54;6.85;;;3.13;;
79149;SDS011;68563;45.644;13.782;2023-07-13T02:13:19;6.78;;;3.30;;
79149;SDS011;68563;45.644;13.782;2023-07-13T02:15:44;6.93;;;3.10;;
79149;SDS011;68563;45.644;13.782;2023-07-13T02:18:10;6.63;;;3.17;;
79149;SDS011;68563;45.644;13.782;2023-07-13T02:20:35;8.60;;;3.72;;
79149;SDS011;68563;45.644;13.782;2023-07-13T02:23:01;8.27;;;3.40;;
79149;SDS011;68563;45.644;13.782;2023-07-13T02:25:26;6.45;;;2.78;;
79149;SDS011;68563;45.644;13.782;2023-07-13T02:27:52;8.35;;;3.47;;
79149;SDS011;68563;45.644;13.782;2023-07-13T02:30:17;8.23;;;3.67;;
79149;SDS011;68563;45.644;13.782;2023-07-13T02:32:43;6.63;;;3.60;;
79149;SDS011;68563;45.644;13.782;2023-07-13T02:35:09;5.80;;;3.50;;
79149;SDS011;68563;45.644;13.782;2023-07-13T02:37:35;6.72;;;3.50;;
79149;SDS011;68563;45.644;13.782;2023-07-13T02:40:00;7.43;;;3.42;;
79149;SDS011;68563;45.644;13.782;2023-07-13T02:42:25;6.03;;;3.83;;
79149;SDS011;68563;45.644;13.782;2023-07-13T02:44:51;9.15;;;3.45;;
79149;SDS011;68563;45.644;13.782;2023-07-13T02:47:16;8.52;;;3.67;;
79149;SDS011;68563;45.644;13.782;2023-07-13T02:49:41;5.75;;;3.53;;
79149;SDS011;68563;45.644;13.782;2023-07-13T02:52:07;6.88;;;3.70;;
79149;SDS011;68563;45.644;13.782;2023-07-13T02:54:32;6.47;;;3.63;;
79149;SDS011;68563;45.644;13.782;2023-07-13T02:56:58;8.20;;;3.92;;
79149;SDS011;68563;45.644;13.782;2023-07-13T02:59:24;6.47;;;4.07;;
79149;SDS011;68563;45.644;13.782;2023-07-13T03:01:49;7.20;;;3.95;;
79149;SDS011;68563;45.644;13.782;2023-07-13T03:04:14;5.90;;;3.40;;
79149;SDS011;68563;45.644;13.782;2023-07-13T03:06:44;12.52;;;4.00;;
79149;SDS011;68563;45.644;13.782;2023-07-13T03:09:10;9.18;;;4.53;;
79149;SDS011;68563;45.644;13.782;2023-07-13T03:11:37;6.40;;;4.07;;
79149;SDS011;68563;45.644;13.782;2023-07-13T03:14:03;9.15;;;4.13;;
79149;SDS011;68563;45.644;13.782;2023-07-13T03:16:28;9.77;;;4.35;;
79149;SDS011;68563;45.644;13.782;2023-07-13T03:18:54;10.95;;;4.50;;
79149;SDS011;68563;45.644;13.782;2023-07-13T03:21:20;6.22;;;4.03;;
79149;SDS011;68563;45.644;13.782;2023-07-13T03:23:46;6.90;;;4.00;;
79149;SDS011;68563;45.644;13.782;2023-07-13T03:26:13;9.02;;;4.00;;
79149;SDS011;68563;45.644;13.782;2023-07-13T03:31:07;9.77;;;4.10;;
79149;SDS011;68563;45.644;13.782;2023-07-13T03:33:35;10.65;;;4.53;;
79149;SDS011;68563;45.644;13.782;2023-07-13T03:36:01;7.57;;;4.53;;
79149;SDS011;68563;45.644;13.782;2023-07-13T03:38:28;10.45;;;4.93;;
79149;SDS011;68563;45.644;13.782;2023-07-13T03:40:53;9.38;;;4.80;;
79149;SDS011;68563;45.644;13.782;2023-07-13T03:43:19;7.70;;;4.97;;
79149;SDS011;68563;45.644;13.782;2023-07-13T03:45:45;7.93;;;4.13;;
79149;SDS011;68563;45.644;13.782;2023-07-13T03:48:11;10.38;;;4.65;;
79149;SDS011;68563;45.644;13.782;2023-07-13T03:50:36;6.43;;;4.18;;
79149;SDS011;68563;45.644;13.782;2023-07-13T03:53:02;6.00;;;4.25;;
79149;SDS011;68563;45.644;13.782;2023-07-13T03:55:27;9.10;;;4.93;;
79149;SDS011;68563;45.644;13.782;2023-07-13T03:57:54;9.35;;;4.20;;
79149;SDS011;68563;45.644;13.782;2023-07-13T04:00:23;9.68;;;4.43;;
79149;SDS011;68563;45.644;13.782;2023-07-13T04:02:49;6.05;;;4.43;;
79149;SDS011;68563;45.644;13.782;2023-07-13T04:05:15;9.63;;;4.70;;
79149;SDS011;68563;45.644;13.782;2023-07-13T04:07:41;9.30;;;4.70;;
79149;SDS011;68563;45.644;13.782;2023-07-13T04:10:06;10.85;;;5.28;;
79149;SDS011;68563;45.644;13.782;2023-07-13T04:12:32;7.40;;;4.85;;
79149;SDS011;68563;45.644;13.782;2023-07-13T04:14:58;8.15;;;4.72;;
79149;SDS011;68563;45.644;13.782;2023-07-13T04:17:23;8.82;;;4.60;;
79149;SDS011;68563;45.644;13.782;2023-07-13T04:19:48;6.05;;;4.50;;
79149;SDS011;68563;45.644;13.782;2023-07-13T04:22:14;11.82;;;4.63;;
79149;SDS011;68563;45.644;13.782;2023-07-13T04:24:40;10.88;;;4.93;;
79149;SDS011;68563;45.644;13.782;2023-07-13T04:27:05;9.10;;;5.13;;
79149;SDS011;68563;45.644;13.782;2023-07-13T04:29:31;7.40;;;4.75;;
79149;SDS011;68563;45.644;13.782;2023-07-13T04:31:57;6.93;;;4.82;;
79149;SDS011;68563;45.644;13.782;2023-07-13T04:34:22;6.82;;;4.90;;
79149;SDS011;68563;45.644;13.782;2023-07-13T04:36:49;8.57;;;5.00;;
79149;SDS011;68563;45.644;13.782;2023-07-13T04:39:14;8.70;;;5.43;;
79149;SDS011;68563;45.644;13.782;2023-07-13T04:41:40;7.68;;;4.72;;
79149;SDS011;68563;45.644;13.782;2023-07-13T04:44:05;8.63;;;5.10;;
79149;SDS011;68563;45.644;13.782;2023-07-13T04:46:31;9.07;;;4.85;;
79149;SDS011;68563;45.644;13.782;2023-07-13T04:48:56;9.07;;;5.50;;
79149;SDS011;68563;45.644;13.782;2023-07-13T04:51:23;7.22;;;4.95;;
79149;SDS011;68563;45.644;13.782;2023-07-13T04:53:48;7.15;;;5.53;;
79149;SDS011;68563;45.644;13.782;2023-07-13T04:56:13;8.38;;;5.40;;
79149;SDS011;68563;45.644;13.782;2023-07-13T04:58:39;7.68;;;5.10;;
79149;SDS011;68563;45.644;13.782;2023-07-13T05:01:05;6.90;;;4.95;;
79149;SDS011;68563;45.644;13.782;2023-07-13T05:03:31;9.50;;;5.05;;
79149;SDS011;68563;45.644;13.782;2023-07-13T05:05:57;9.77;;;5.07;;
79149;SDS011;68563;45.644;13.782;2023-07-13T05:08:24;7.97;;;4.88;;
79149;SDS011;68563;45.644;13.782;2023-07-13T05:10:50;8.27;;;4.68;;
79149;SDS011;68563;45.644;13.782;2023-07-13T05:13:17;8.90;;;5.13;;
79149;SDS011;68563;45.644;13.782;2023-07-13T05:15:42;5.35;;;4.82;;
79149;SDS011;68563;45.644;13.782;2023-07-13T05:18:07;8.52;;;5.22;;
79149;SDS011;68563;45.644;13.782;2023-07-13T05:20:33;8.85;;;5.50;;
79149;SDS011;68563;45.644;13.782;2023-07-13T05:22:58;9.38;;;4.95;;
79149;SDS011;68563;45.644;13.782;2023-07-13T05:25:24;10.70;;;5.60;;
79149;SDS011;68563;45.644;13.782;2023-07-13T05:27:49;11.43;;;5.50;;
79149;SDS011;68563;45.644;13.782;2023-07-13T05:30:14;7.63;;;5.43;;
79149;SDS011;68563;45.644;13.782;2023-07-13T05:32:40;10.88;;;5.15;;
79149;SDS011;68563;45.644;13.782;2023-07-13T05:35:06;11.05;;;5.32;;
79149;SDS011;68563;45.644;13.782;2023-07-13T05:37:33;9.57;;;4.93;;
79149;SDS011;68563;45.644;13.782;2023-07-13T05:39:58;11.82;;;5.75;;
79149;SDS011;68563;45.644;13.782;2023-07-13T05:42:24;7.28;;;5.45;;
79149;SDS011;68563;45.644;13.782;2023-07-13T05:44:49;9.20;;;5.75;;
79149;SDS011;68563;45.644;13.782;2023-07-13T05:47:14;9.82;;;5.45;;
79149;SDS011;68563;45.644;13.782;2023-07-13T05:49:40;11.85;;;5.38;;
79149;SDS011;68563;45.644;13.782;2023-07-13T05:52:06;9.25;;;5.32;;
79149;SDS011;68563;45.644;13.782;2023-07-13T05:54:32;16.15;;;5.50;;
79149;SDS011;68563;45.644;13.782;2023-07-13T05:56:57;9.05;;;5.40;;
79149;SDS011;68563;45.644;13.782;2023-07-13T05:59:22;9.80;;;5.38;;
79149;SDS011;68563;45.644;13.782;2023-07-13T06:01:48;8.55;;;5.30;;
79149;SDS011;68563;45.644;13.782;2023-07-13T06:04:14;13.20;;;5.70;;
79149;SDS011;68563;45.644;13.782;2023-07-13T06:06:39;10.70;;;5.57;;
79149;SDS011;68563;45.644;13.782;2023-07-13T06:09:05;8.93;;;5.50;;
79149;SDS011;68563;45.644;13.782;2023-07-13T06:11:30;10.73;;;5.55;;
79149;SDS011;68563;45.644;13.782;2023-07-13T06:13:56;8.70;;;5.05;;
79149;SDS011;68563;45.644;13.782;2023-07-13T06:16:22;9.35;;;4.95;;
79149;SDS011;68563;45.644;13.782;2023-07-13T06:18:47;10.13;;;5.13;;
79149;SDS011;68563;45.644;13.782;2023-07-13T06:21:14;9.45;;;5.65;;
79149;SDS011;68563;45.644;13.782;2023-07-13T06:23:41;9.63;;;5.25;;
79149;SDS011;68563;45.644;13.782;2023-07-13T06:26:07;8.82;;;5.70;;
79149;SDS011;68563;45.644;13.782;2023-07-13T06:28:34;8.80;;;5.50;;
79149;SDS011;68563;45.644;13.782;2023-07-13T06:31:00;9.40;;;5.28;;
79149;SDS011;68563;45.644;13.782;2023-07-13T06:33:26;9.75;;;4.95;;
79149;SDS011;68563;45.644;13.782;2023-07-13T06:35:51;8.75;;;5.80;;
79149;SDS011;68563;45.644;13.782;2023-07-13T06:38:18;9.60;;;4.85;;
79149;SDS011;68563;45.644;13.782;2023-07-13T06:40:43;10.52;;;5.15;;
79149;SDS011;68563;45.644;13.782;2023-07-13T06:43:08;10.60;;;5.55;;
79149;SDS011;68563;45.644;13.782;2023-07-13T06:45:41;8.32;;;4.65;;
79149;SDS011;68563;45.644;13.782;2023-07-13T06:48:11;9.95;;;5.07;;
79149;SDS011;68563;45.644;13.782;2023-07-13T06:50:36;6.75;;;4.95;;
79149;SDS011;68563;45.644;13.782;2023-07-13T06:53:02;12.27;;;5.15;;
79149;SDS011;68563;45.644;13.782;2023-07-13T06:55:27;8.48;;;5.22;;
79149;SDS011;68563;45.644;13.782;2023-07-13T06:57:53;11.52;;;5.38;;
79149;SDS011;68563;45.644;13.782;2023-07-13T07:00:18;8.98;;;5.35;;
79149;SDS011;68563;45.644;13.782;2023-07-13T07:02:44;9.63;;;5.45;;
79149;SDS011;68563;45.644;13.782;2023-07-13T07:05:09;9.43;;;4.65;;
79149;SDS011;68563;45.644;13.782;2023-07-13T07:07:34;8.60;;;5.38;;
79149;SDS011;68563;45.644;13.782;2023-07-13T07:10:00;10.52;;;5.55;;
79149;SDS011;68563;45.644;13.782;2023-07-13T07:12:25;14.60;;;5.60;;
79149;SDS011;68563;45.644;13.782;2023-07-13T07:14:51;14.15;;;5.47;;
79149;SDS011;68563;45.644;13.782;2023-07-13T07:17:16;10.07;;;5.35;;
79149;SDS011;68563;45.644;13.782;2023-07-13T07:19:42;10.38;;;5.65;;
79149;SDS011;68563;45.644;13.782;2023-07-13T07:22:07;10.35;;;5.43;;
79149;SDS011;68563;45.644;13.782;2023-07-13T07:24:33;13.18;;;5.20;;
79149;SDS011;68563;45.644;13.782;2023-07-13T07:26:58;8.30;;;5.18;;
79149;SDS011;68563;45.644;13.782;2023-07-13T07:29:23;8.73;;;5.47;;
79149;SDS011;68563;45.644;13.782;2023-07-13T07:31:51;10.18;;;5.13;;
79149;SDS011;68563;45.644;13.782;2023-07-13T07:34:17;11.07;;;5.63;;
79149;SDS011;68563;45.644;13.782;2023-07-13T07:36:42;10.55;;;5.45;;
79149;SDS011;68563;45.644;13.782;2023-07-13T07:39:07;9.32;;;5.47;;
79149;SDS011;68563;45.644;13.782;2023-07-13T07:41:33;14.30;;;5.10;;
79149;SDS011;68563;45.644;13.782;2023-07-13T07:43:58;15.15;;;5.55;;
79149;SDS011;68563;45.644;13.782;2023-07-13T07:46:23;11.48;;;5.32;;
79149;SDS011;68563;45.644;13.782;2023-07-13T07:48:49;11.25;;;5.57;;
79149;SDS011;68563;45.644;13.782;2023-07-13T07:51:14;9.57;;;4.97;;
79149;SDS011;68563;45.644;13.782;2023-07-13T07:53:40;12.90;;;5.75;;
79149;SDS011;68563;45.644;13.782;2023-07-13T07:56:05;13.07;;;5.22;;
79149;SDS011;68563;45.644;13.782;2023-07-13T07:58:30;15.50;;;5.50;;
79149;SDS011;68563;45.644;13.782;2023-07-13T08:01:03;9.60;;;4.88;;
79149;SDS011;68563;45.644;13.782;2023-07-13T08:03:32;17.25;;;6.10;;
79149;SDS011;68563;45.644;13.782;2023-07-13T08:05:57;11.02;;;4.70;;
79149;SDS011;68563;45.644;13.782;2023-07-13T08:08:23;17.50;;;5.43;;
79149;SDS011;68563;45.644;13.782;2023-07-13T08:10:49;14.43;;;5.03;;
79149;SDS011;68563;45.644;13.782;2023-07-13T08:13:14;21.20;;;5.72;;
79149;SDS011;68563;45.644;13.782;2023-07-13T08:15:40;12.52;;;5.10;;
79149;SDS011;68563;45.644;13.782;2023-07-13T08:18:05;12.02;;;5.57;;
79149;SDS011;68563;45.644;13.782;2023-07-13T08:20:32;13.85;;;5.22;;
79149;SDS011;68563;45.644;13.782;2023-07-13T08:22:57;15.13;;;5.70;;
79149;SDS011;68563;45.644;13.782;2023-07-13T08:25:23;13.30;;;4.95;;
79149;SDS011;68563;45.644;13.782;2023-07-13T08:27:48;16.10;;;6.50;;
79149;SDS011;68563;45.644;13.782;2023-07-13T08:30:14;14.57;;;5.50;;
79149;SDS011;68563;45.644;13.782;2023-07-13T08:32:39;18.38;;;5.78;;
79149;SDS011;68563;45.644;13.782;2023-07-13T08:35:05;13.43;;;6.05;;
79149;SDS011;68563;45.644;13.782;2023-07-13T08:37:30;14.73;;;5.63;;
79149;SDS011;68563;45.644;13.782;2023-07-13T08:39:56;13.85;;;5.75;;
79149;SDS011;68563;45.644;13.782;2023-07-13T08:42:31;16.55;;;5.80;;
79149;SDS011;68563;45.644;13.782;2023-07-13T08:47:46;13.73;;;5.63;;
79149;SDS011;68563;45.644;13.782;2023-07-13T08:50:19;16.30;;;5.97;;
79149;SDS011;68563;45.644;13.782;2023-07-13T08:52:49;11.55;;;5.40;;
79149;SDS011;68563;45.644;13.782;2023-07-13T08:55:21;17.05;;;5.82;;
79149;SDS011;68563;45.644;13.782;2023-07-13T08:58:14;16.48;;;5.97;;
79149;SDS011;68563;45.644;13.782;2023-07-13T09:03:24;15.57;;;6.03;;
79149;SDS011;68563;45.644;13.782;2023-07-13T09:05:59;14.07;;;5.95;;
79149;SDS011;68563;45.644;13.782;2023-07-13T09:13:44;16.55;;;5.60;;
79149;SDS011;68563;45.644;13.782;2023-07-13T09:16:13;16.10;;;5.63;;
79149;SDS011;68563;45.644;13.782;2023-07-13T09:18:43;12.00;;;6.03;;
79149;SDS011;68563;45.644;13.782;2023-07-13T09:21:15;17.10;;;6.03;;
79149;SDS011;68563;45.644;13.782;2023-07-13T09:23:45;15.20;;;5.88;;
79149;SDS011;68563;45.644;13.782;2023-07-13T09:26:14;13.68;;;5.70;;
79149;SDS011;68563;45.644;13.782;2023-07-13T09:28:44;17.83;;;5.70;;
79149;SDS011;68563;45.644;13.782;2023-07-13T09:33:44;12.27;;;5.93;;
79149;SDS011;68563;45.644;13.782;2023-07-13T09:38:44;17.00;;;6.05;;
79149;SDS011;68563;45.644;13.782;2023-07-13T09:41:31;13.10;;;6.10;;
79149;SDS011;68563;45.644;13.782;2023-07-13T09:46:36;14.55;;;5.60;;
79149;SDS011;68563;45.644;13.782;2023-07-13T09:49:03;10.73;;;5.32;;
79149;SDS011;68563;45.644;13.782;2023-07-13T09:51:28;12.18;;;5.63;;
79149;SDS011;68563;45.644;13.782;2023-07-13T09:53:54;8.88;;;5.22;;
79149;SDS011;68563;45.644;13.782;2023-07-13T09:56:23;9.48;;;5.65;;
79149;SDS011;68563;45.644;13.782;2023-07-13T09:58:52;16.45;;;5.82;;
79149;SDS011;68563;45.644;13.782;2023-07-13T10:01:30;12.73;;;5.63;;
79149;SDS011;68563;45.644;13.782;2023-07-13T10:03:58;14.82;;;5.72;;
79149;SDS011;68563;45.644;13.782;2023-07-13T10:06:23;10.70;;;5.75;;
79149;SDS011;68563;45.644;13.782;2023-07-13T10:08:51;11.25;;;5.72;;
79149;SDS011;68563;45.644;13.782;2023-07-13T10:11:21;10.80;;;5.65;;
79149;SDS011;68563;45.644;13.782;2023-07-13T10:13:52;16.33;;;5.78;;
79149;SDS011;68563;45.644;13.782;2023-07-13T10:16:25;11.32;;;5.70;;
79149;SDS011;68563;45.644;13.782;2023-07-13T10:18:58;11.05;;;5.72;;
79149;SDS011;68563;45.644;13.782;2023-07-13T10:21:29;11.55;;;5.55;;
79149;SDS011;68563;45.644;13.782;2023-07-13T10:24:21;11.20;;;5.38;;
79149;SDS011;68563;45.644;13.782;2023-07-13T10:32:09;11.32;;;6.30;;
79149;SDS011;68563;45.644;13.782;2023-07-13T10:34:37;16.55;;;7.25;;
79149;SDS011;68563;45.644;13.782;2023-07-13T10:37:04;13.77;;;6.90;;
79149;SDS011;68563;45.644;13.782;2023-07-13T10:39:33;11.25;;;5.63;;
79149;SDS011;68563;45.644;13.782;2023-07-13T10:42:03;14.45;;;6.28;;
79149;SDS011;68563;45.644;13.782;2023-07-13T10:44:32;10.02;;;5.88;;
79149;SDS011;68563;45.644;13.782;2023-07-13T10:47:00;12.70;;;6.13;;
79149;SDS011;68563;45.644;13.782;2023-07-13T10:49:31;13.80;;;6.18;;
79149;SDS011;68563;45.644;13.782;2023-07-13T10:51:58;8.00;;;5.63;;
79149;SDS011;68563;45.644;13.782;2023-07-13T10:54:28;14.32;;;6.25;;
79149;SDS011;68563;45.644;13.782;2023-07-13T10:59:49;13.60;;;6.05;;
79149;SDS011;68563;45.644;13.782;2023-07-13T11:02:40;10.90;;;6.15;;
79149;SDS011;68563;45.644;13.782;2023-07-13T11:05:14;10.35;;;5.90;;
79149;SDS011;68563;45.644;13.782;2023-07-13T11:07:53;13.35;;;6.50;;
79149;SDS011;68563;45.644;13.782;2023-07-13T11:16:14;13.50;;;6.30;;
79149;SDS011;68563;45.644;13.782;2023-07-13T11:24:28;10.30;;;5.75;;
79149;SDS011;68563;45.644;13.782;2023-07-13T11:30:31;13.32;;;6.22;;
79149;SDS011;68563;45.644;13.782;2023-07-13T11:35:37;16.38;;;6.75;;
79149;SDS011;68563;45.644;13.782;2023-07-13T11:38:12;14.93;;;6.03;;
79149;SDS011;68563;45.644;13.782;2023-07-13T11:40:41;11.80;;;5.97;;
79149;SDS011;68563;45.644;13.782;2023-07-13T11:43:11;14.63;;;6.00;;
79149;SDS011;68563;45.644;13.782;2023-07-13T11:45:39;15.18;;;5.95;;
79149;SDS011;68563;45.644;13.782;2023-07-13T11:48:04;16.95;;;6.53;;
79149;SDS011;68563;45.644;13.782;2023-07-13T11:50:30;13.50;;;6.63;;
79149;SDS011;68563;45.644;13.782;2023-07-13T11:52:57;16.50;;;6.38;;
79149;SDS011;68563;45.644;13.782;2023-07-13T11:55:24;15.30;;;6.50;;
79149;SDS011;68563;45.644;13.782;2023-07-13T11:57:59;16.98;;;6.68;;
79149;SDS011;68563;45.644;13.782;2023-07-13T12:00:28;14.07;;;5.97;;
79149;SDS011;68563;45.644;13.782;2023-07-13T12:02:59;15.13;;;6.63;;
79149;SDS011;68563;45.644;13.782;2023-07-13T12:05:26;15.25;;;6.05;;
79149;SDS011;68563;45.644;13.782;2023-07-13T12:07:52;13.35;;;6.50;;
79149;SDS011;68563;45.644;13.782;2023-07-13T12:10:29;14.55;;;6.18;;
79149;SDS011;68563;45.644;13.782;2023-07-13T12:12:59;11.50;;;5.82;;
79149;SDS011;68563;45.644;13.782;2023-07-13T12:15:32;10.57;;;6.28;;
79149;SDS011;68563;45.644;13.782;2023-07-13T12:18:03;14.30;;;5.78;;
79149;SDS011;68563;45.644;13.782;2023-07-13T12:20:35;22.15;;;6.03;;
79149;SDS011;68563;45.644;13.782;2023-07-13T12:23:10;11.35;;;6.25;;
79149;SDS011;68563;45.644;13.782;2023-07-13T12:25:50;15.43;;;5.80;;
79149;SDS011;68563;45.644;13.782;2023-07-13T12:28:21;13.40;;;6.25;;
79149;SDS011;68563;45.644;13.782;2023-07-13T12:30:57;11.25;;;5.93;;
79149;SDS011;68563;45.644;13.782;2023-07-13T12:33:24;13.23;;;5.80;;
79149;SDS011;68563;45.644;13.782;2023-07-13T12:35:53;15.98;;;7.00;;
79149;SDS011;68563;45.644;13.782;2023-07-13T12:38:18;14.15;;;6.00;;
79149;SDS011;68563;45.644;13.782;2023-07-13T12:40:48;15.10;;;6.10;;
79149;SDS011;68563;45.644;13.782;2023-07-13T12:43:16;18.17;;;6.25;;
79149;SDS011;68563;45.644;13.782;2023-07-13T12:45:57;20.10;;;7.00;;
79149;SDS011;68563;45.644;13.782;2023-07-13T12:48:26;17.05;;;6.90;;
79149;SDS011;68563;45.644;13.782;2023-07-13T12:50:51;19.95;;;6.10;;
79149;SDS011;68563;45.644;13.782;2023-07-13T12:53:20;20.33;;;5.63;;
79149;SDS011;68563;45.644;13.782;2023-07-13T12:55:56;13.68;;;4.55;;
79149;SDS011;68563;45.644;13.782;2023-07-13T12:58:29;14.77;;;4.60;;
79149;SDS011;68563;45.644;13.782;2023-07-13T13:00:58;8.82;;;4.07;;
79149;SDS011;68563;45.644;13.782;2023-07-13T13:03:35;9.18;;;3.80;;
79149;SDS011;68563;45.644;13.782;2023-07-13T13:06:04;9.63;;;3.78;;
79149;SDS011;68563;45.644;13.782;2023-07-13T13:08:32;14.32;;;4.13;;
79149;SDS011;68563;45.644;13.782;2023-07-13T13:11:00;10.43;;;3.78;;
79149;SDS011;68563;45.644;13.782;2023-07-13T13:13:27;14.25;;;3.97;;
79149;SDS011;68563;45.644;13.782;2023-07-13T13:15:52;14.93;;;4.15;;
79149;SDS011;68563;45.644;13.782;2023-07-13T13:18:19;12.73;;;4.43;;
79149;SDS011;68563;45.644;13.782;2023-07-13T13:20:47;12.10;;;4.45;;
79149;SDS011;68563;45.644;13.782;2023-07-13T13:23:17;13.13;;;4.47;;
79149;SDS011;68563;45.644;13.782;2023-07-13T13:25:48;11.00;;;5.20;;
79149;SDS011;68563;45.644;13.782;2023-07-13T13:28:16;8.40;;;4.57;;
79149;SDS011;68563;45.644;13.782;2023-07-13T13:30:43;12.50;;;5.13;;
79149;SDS011;68563;45.644;13.782;2023-07-13T13:33:11;11.77;;;5.07;;
79149;SDS011;68563;45.644;13.782;2023-07-13T13:35:40;16.63;;;5.78;;
79149;SDS011;68563;45.644;13.782;2023-07-13T13:38:13;13.70;;;5.25;;
79149;SDS011;68563;45.644;13.782;2023-07-13T13:40:40;15.65;;;5.70;;
79149;SDS011;68563;45.644;13.782;2023-07-13T13:43:25;18.35;;;6.18;;
79149;SDS011;68563;45.644;13.782;2023-07-13T13:45:52;16.60;;;5.72;;
79149;SDS011;68563;45.644;13.782;2023-07-13T13:48:24;16.67;;;5.88;;
79149;SDS011;68563;45.644;13.782;2023-07-13T13:50:55;13.70;;;5.70;;
79149;SDS011;68563;45.644;13.782;2023-07-13T13:53:21;14.23;;;5.93;;
79149;SDS011;68563;45.644;13.782;2023-07-13T13:55:48;15.43;;;5.82;;
79149;SDS011;68563;45.644;13.782;2023-07-13T13:58:14;15.30;;;6.53;;
79149;SDS011;68563;45.644;13.782;2023-07-13T14:00:39;14.90;;;6.70;;
79149;SDS011;68563;45.644;13.782;2023-07-13T14:03:05;20.40;;;6.32;;
79149;SDS011;68563;45.644;13.782;2023-07-13T14:05:39;13.70;;;6.38;;
79149;SDS011;68563;45.644;13.782;2023-07-13T14:08:08;24.52;;;6.63;;
79149;SDS011;68563;45.644;13.782;2023-07-13T14:10:41;12.85;;;6.07;;
79149;SDS011;68563;45.644;13.782;2023-07-13T14:13:07;12.82;;;6.28;;
79149;SDS011;68563;45.644;13.782;2023-07-13T14:15:46;19.85;;;6.43;;
79149;SDS011;68563;45.644;13.782;2023-07-13T14:18:12;16.75;;;6.22;;
79149;SDS011;68563;45.644;13.782;2023-07-13T14:20:43;15.73;;;6.78;;
79149;SDS011;68563;45.644;13.782;2023-07-13T14:23:15;13.75;;;6.85;;
79149;SDS011;68563;45.644;13.782;2023-07-13T14:25:41;14.45;;;6.40;;
79149;SDS011;68563;45.644;13.782;2023-07-13T14:28:15;20.50;;;6.47;;
79149;SDS011;68563;45.644;13.782;2023-07-13T14:30:52;16.95;;;6.35;;
79149;SDS011;68563;45.644;13.782;2023-07-13T14:33:19;19.23;;;6.47;;
79149;SDS011;68563;45.644;13.782;2023-07-13T14:35:45;17.58;;;6.93;;
79149;SDS011;68563;45.644;13.782;2023-07-13T14:38:11;14.57;;;6.65;;
79149;SDS011;68563;45.644;13.782;2023-07-13T14:40:40;17.15;;;6.85;;
79149;SDS011;68563;45.644;13.782;2023-07-13T14:43:09;16.35;;;6.30;;
79149;SDS011;68563;45.644;13.782;2023-07-13T14:45:42;18.17;;;7.25;;
79149;SDS011;68563;45.644;13.782;2023-07-13T14:48:18;14.15;;;6.80;;
79149;SDS011;68563;45.644;13.782;2023-07-13T14:53:12;18.90;;;6.35;;
79149;SDS011;68563;45.644;13.782;2023-07-13T14:55:38;17.83;;;7.05;;
79149;SDS011;68563;45.644;13.782;2023-07-13T14:58:03;18.33;;;7.35;;
79149;SDS011;68563;45.644;13.782;2023-07-13T15:00:28;18.35;;;6.60;;
79149;SDS011;68563;45.644;13.782;2023-07-13T15:02:55;15.05;;;7.18;;
79149;SDS011;68563;45.644;13.782;2023-07-13T15:05:26;15.88;;;7.07;;
79149;SDS011;68563;45.644;13.782;2023-07-13T15:07:57;14.40;;;7.40;;
79149;SDS011;68563;45.644;13.782;2023-07-13T15:10:27;16.50;;;6.85;;
79149;SDS011;68563;45.644;13.782;2023-07-13T15:12:57;14.57;;;7.03;;
79149;SDS011;68563;45.644;13.782;2023-07-13T15:15:26;15.60;;;6.55;;
79149;SDS011;68563;45.644;13.782;2023-07-13T15:17:53;14.52;;;6.93;;
79149;SDS011;68563;45.644;13.782;2023-07-13T15:20:22;15.38;;;6.80;;